createdAt,value
2022-10-06T00:01:11.551Z,101104.72
2022-10-06T00:03:39.830Z,101103.47
2022-10-06T00:06:07.966Z,101103.03
2022-10-06T00:08:38.484Z,101112.63
2022-10-06T00:11:06.542Z,101102.50
2022-10-06T00:13:34.499Z,101113.31
2022-10-06T00:16:02.280Z,101115.53
2022-10-06T00:18:30.315Z,101113.44
2022-10-06T00:21:01.067Z,101111.72
2022-10-06T00:23:31.468Z,101118.19
2022-10-06T00:25:58.528Z,101117.91
2022-10-06T00:28:26.575Z,101119.78
2022-10-06T00:30:56.125Z,101120.78
2022-10-06T00:33:24.027Z,101114.69
2022-10-06T00:36:00.854Z,101123.00
2022-10-06T00:38:28.651Z,101125.50
2022-10-06T00:40:56.014Z,101126.22
2022-10-06T00:43:53.733Z,101130.34
2022-10-06T00:46:31.881Z,101132.84
2022-10-06T00:49:22.031Z,101128.41
2022-10-06T00:52:04.347Z,101142.53
2022-10-06T00:54:33.445Z,101139.97
2022-10-06T00:57:00.817Z,101136.47
2022-10-06T00:59:27.808Z,101135.94
2022-10-06T01:02:04.429Z,101135.28
2022-10-06T01:04:37.273Z,101135.31
2022-10-06T01:07:04.639Z,101138.19
2022-10-06T01:09:32.585Z,101146.81
2022-10-06T01:12:04.169Z,101139.47
2022-10-06T01:14:31.925Z,101150.97
2022-10-06T01:17:12.086Z,101157.78
2022-10-06T01:20:11.763Z,101153.06
2022-10-06T01:23:06.805Z,101154.59
2022-10-06T01:25:35.527Z,101152.81
2022-10-06T01:28:06.968Z,101148.34
2022-10-06T01:30:52.652Z,101141.41
2022-10-06T01:33:26.169Z,101150.28
2022-10-06T01:35:53.652Z,101159.16
2022-10-06T01:38:21.968Z,101160.13
2022-10-06T01:40:52.491Z,101169.19
2022-10-06T01:43:20.685Z,101170.53
2022-10-06T01:45:55.808Z,101166.41
2022-10-06T01:48:24.065Z,101172.47
2022-10-06T01:50:51.347Z,101174.72
2022-10-06T01:53:19.104Z,101168.31
2022-10-06T01:55:46.434Z,101173.31
2022-10-06T01:58:13.641Z,101169.00
2022-10-06T02:00:41.076Z,101172.47
2022-10-06T02:03:08.551Z,101174.97
2022-10-06T02:05:35.760Z,101169.13
2022-10-06T02:08:03.607Z,101165.84
2022-10-06T02:10:30.865Z,101176.09
2022-10-06T02:12:57.820Z,101174.84
2022-10-06T02:15:26.793Z,101170.28
2022-10-06T02:17:54.811Z,101166.53
2022-10-06T02:20:22.393Z,101174.97
2022-10-06T02:22:49.686Z,101177.91
2022-10-06T02:25:17.212Z,101187.50
2022-10-06T02:27:44.571Z,101188.59
2022-10-06T02:30:14.505Z,101187.47
2022-10-06T02:32:44.016Z,101194.13
2022-10-06T02:35:12.984Z,101198.56
2022-10-06T02:37:41.605Z,101190.22
2022-10-06T02:40:09.967Z,101202.03
2022-10-06T02:42:38.202Z,101197.94
2022-10-06T02:45:06.942Z,101201.59
2022-10-06T02:47:36.390Z,101207.66
2022-10-06T02:50:07.797Z,101208.50
2022-10-06T02:52:38.341Z,101210.28
2022-10-06T02:55:07.506Z,101210.72
2022-10-06T02:57:34.471Z,101211.56
2022-10-06T03:00:01.434Z,101216.31
2022-10-06T03:02:30.967Z,101227.59
2022-10-06T03:04:58.024Z,101217.16
2022-10-06T03:07:25.051Z,101230.34
2022-10-06T03:09:51.960Z,101238.38
2022-10-06T03:12:19.202Z,101234.78
2022-10-06T03:14:46.086Z,101239.94
2022-10-06T03:17:13.046Z,101232.47
2022-10-06T03:19:40.075Z,101245.66
2022-10-06T03:22:07.125Z,101243.59
2022-10-06T03:24:34.994Z,101255.63
2022-10-06T03:27:02.033Z,101257.19
2022-10-06T03:29:29.798Z,101268.44
2022-10-06T03:31:58.419Z,101271.91
2022-10-06T03:34:25.724Z,101283.56
2022-10-06T03:36:55.766Z,101293.00
2022-10-06T03:39:22.730Z,101289.53
2022-10-06T03:41:50.254Z,101295.91
2022-10-06T03:44:17.189Z,101298.16
2022-10-06T03:46:44.181Z,101302.97
2022-10-06T03:49:11.182Z,101319.38
2022-10-06T03:51:41.772Z,101320.44
2022-10-06T03:54:12.470Z,101332.41
2022-10-06T03:56:42.642Z,101329.34
2022-10-06T03:59:16.382Z,101345.47
2022-10-06T04:01:48.252Z,101338.38
2022-10-06T04:04:15.381Z,101338.53
2022-10-06T04:06:44.545Z,101357.84
2022-10-06T04:09:15.712Z,101361.56
2022-10-06T04:11:44.741Z,101375.06
2022-10-06T04:14:15.854Z,101382.97
2022-10-06T04:16:50.177Z,101381.78
2022-10-06T04:19:18.974Z,101389.50
2022-10-06T04:21:47.660Z,101399.44
2022-10-06T04:24:17.155Z,101390.38
2022-10-06T04:26:46.794Z,101387.06
2022-10-06T04:29:14.457Z,101409.88
2022-10-06T04:31:42.564Z,101424.28
2022-10-06T04:34:13.217Z,101423.22
2022-10-06T04:36:42.602Z,101418.91
2022-10-06T04:39:12.117Z,101400.69
2022-10-06T04:41:41.964Z,101396.13
2022-10-06T04:44:09.003Z,101403.22
2022-10-06T04:46:44.709Z,101406.94
2022-10-06T04:49:19.069Z,101412.38
2022-10-06T04:51:49.759Z,101418.03
2022-10-06T04:54:18.532Z,101434.56
2022-10-06T04:56:46.415Z,101437.56
2022-10-06T04:59:13.366Z,101440.44
2022-10-06T05:01:45.268Z,101451.22
2022-10-06T05:04:12.312Z,101459.66
2022-10-06T05:06:42.286Z,101459.84
2022-10-06T05:09:15.477Z,101462.63
2022-10-06T05:11:42.469Z,101466.38
2022-10-06T05:14:11.073Z,101471.13
2022-10-06T05:16:38.386Z,101473.56
2022-10-06T05:19:07.737Z,101472.41
2022-10-06T05:21:34.831Z,101475.81
2022-10-06T05:24:02.861Z,101488.31
2022-10-06T05:26:34.315Z,101491.25
2022-10-06T05:29:01.861Z,101501.81
2022-10-06T05:31:32.762Z,101515.16
2022-10-06T05:34:00.492Z,101515.41
2022-10-06T05:36:30.663Z,101526.56
2022-10-06T05:38:59.064Z,101537.66
2022-10-06T05:41:37.613Z,101544.34
2022-10-06T05:44:04.630Z,101555.22
2022-10-06T05:46:33.189Z,101556.75
2022-10-06T05:49:09.141Z,101565.81
2022-10-06T05:51:38.726Z,101572.03
2022-10-06T05:54:06.384Z,101581.56
2022-10-06T05:56:38.381Z,101589.09
2022-10-06T05:59:06.145Z,101607.19
2022-10-06T06:01:41.685Z,101602.06
2022-10-06T06:04:13.957Z,101623.34
2022-10-06T06:06:48.576Z,101631.75
2022-10-06T06:09:19.748Z,101637.97
2022-10-06T06:11:51.113Z,101629.59
2022-10-06T06:14:44.353Z,101651.75
2022-10-06T06:17:11.503Z,101656.13
2022-10-06T06:19:38.575Z,101661.66
2022-10-06T06:22:05.501Z,101673.03
2022-10-06T06:24:32.465Z,101687.66
2022-10-06T06:26:59.409Z,101683.34
2022-10-06T06:29:26.354Z,101702.13
2022-10-06T06:31:53.348Z,101703.34
2022-10-06T06:34:20.304Z,101705.38
2022-10-06T06:36:53.543Z,101708.63
2022-10-06T06:39:21.806Z,101710.41
2022-10-06T06:41:49.194Z,101722.13
2022-10-06T06:44:16.374Z,101722.47
2022-10-06T06:46:49.433Z,101738.03
2022-10-06T06:49:18.960Z,101739.25
2022-10-06T06:51:49.979Z,101745.47
2022-10-06T06:54:18.205Z,101751.59
2022-10-06T06:56:48.944Z,101756.97
2022-10-06T06:59:16.150Z,101758.22
2022-10-06T07:01:45.710Z,101764.03
2022-10-06T07:04:15.705Z,101772.06
2022-10-06T07:06:57.826Z,101774.47
2022-10-06T07:09:26.370Z,101775.19
2022-10-06T07:11:54.954Z,101782.50
2022-10-06T07:14:24.028Z,101788.59
2022-10-06T07:17:09.690Z,101786.69
2022-10-06T07:19:57.175Z,101800.72
2022-10-06T07:22:46.596Z,101800.81
2022-10-06T07:25:32.034Z,101814.84
2022-10-06T07:27:59.049Z,101820.47
2022-10-06T07:30:29.204Z,101817.72
2022-10-06T07:32:56.266Z,101820.72
2022-10-06T07:35:25.169Z,101831.41
2022-10-06T07:37:55.667Z,101836.81
2022-10-06T07:40:24.990Z,101830.22
2022-10-06T07:42:52.317Z,101832.13
2022-10-06T07:45:45.405Z,101833.69
2022-10-06T07:48:17.969Z,101840.66
2022-10-06T07:50:49.059Z,101859.53
2022-10-06T07:53:18.133Z,101848.66
2022-10-06T07:55:47.757Z,101859.06
2022-10-06T07:58:18.775Z,101857.63
2022-10-06T08:00:48.785Z,101861.56
2022-10-06T08:03:18.042Z,101864.94
2022-10-06T08:05:59.026Z,101868.63
2022-10-06T08:08:26.197Z,101871.56
2022-10-06T08:11:01.623Z,101876.13
2022-10-06T08:13:32.323Z,101883.41
2022-10-06T08:16:16.923Z,101896.03
2022-10-06T08:18:53.342Z,101895.75
2022-10-06T08:21:34.411Z,101898.16
2022-10-06T08:24:02.055Z,101896.50
2022-10-06T08:26:31.216Z,101907.03
2022-10-06T08:29:02.155Z,101913.03
2022-10-06T08:31:30.920Z,101921.91
2022-10-06T08:33:57.992Z,101916.63
2022-10-06T08:36:31.832Z,101923.34
2022-10-06T08:39:00.526Z,101931.03
2022-10-06T08:42:03.831Z,101936.72
2022-10-06T08:44:50.439Z,101941.31
2022-10-06T08:47:23.453Z,101953.13
2022-10-06T08:49:57.386Z,101947.91
2022-10-06T08:52:50.239Z,101958.94
2022-10-06T08:55:41.758Z,101960.50
2022-10-06T08:58:55.608Z,101962.06
2022-10-06T09:01:47.679Z,101970.34
2022-10-06T09:04:29.262Z,101966.53
2022-10-06T09:07:16.611Z,101971.66
2022-10-06T09:10:31.246Z,101964.44
2022-10-06T09:13:11.729Z,101982.16
2022-10-06T09:16:07.539Z,101985.72
2022-10-06T09:19:08.286Z,101991.44
2022-10-06T09:21:46.268Z,101986.09
2022-10-06T09:24:47.544Z,101996.75
2022-10-06T09:27:50.492Z,101995.56
2022-10-06T09:30:18.808Z,101994.34
2022-10-06T09:32:51.372Z,101993.59
2022-10-06T09:35:25.014Z,102010.91
2022-10-06T09:38:09.067Z,102000.44
2022-10-06T09:40:51.392Z,102005.75
2022-10-06T09:43:29.637Z,102019.25
2022-10-06T09:46:21.218Z,102019.00
2022-10-06T09:48:48.126Z,102010.22
2022-10-06T09:51:18.305Z,102019.81
2022-10-06T09:54:16.359Z,102030.53
2022-10-06T09:56:46.079Z,102029.88
2022-10-06T09:59:40.146Z,102024.84
2022-10-06T10:02:37.267Z,102025.34
2022-10-06T10:05:21.287Z,102017.41
2022-10-06T10:08:22.257Z,102035.16
2022-10-06T10:11:28.104Z,102024.88
2022-10-06T10:13:59.830Z,102033.50
2022-10-06T10:16:34.515Z,102033.16
2022-10-06T10:19:05.587Z,102026.50
2022-10-06T10:21:34.867Z,102031.38
2022-10-06T10:24:14.948Z,102040.13
2022-10-06T10:27:13.159Z,102038.16
2022-10-06T10:30:09.218Z,102048.03
2022-10-06T10:33:09.309Z,102054.22
2022-10-06T10:35:45.729Z,102050.38
2022-10-06T10:38:24.661Z,102046.56
2022-10-06T10:41:06.846Z,102052.53
2022-10-06T10:44:10.596Z,102060.84
2022-10-06T10:46:54.871Z,102067.69
2022-10-06T10:49:33.585Z,102064.47
2022-10-06T10:52:20.381Z,102066.66
2022-10-06T10:55:41.176Z,102059.47
2022-10-06T10:58:46.804Z,102066.47
2022-10-06T11:02:13.359Z,102071.91
2022-10-06T11:04:49.481Z,102064.97
2022-10-06T11:07:50.002Z,102072.28
2022-10-06T11:10:30.414Z,102071.38
2022-10-06T11:13:38.669Z,102064.50
2022-10-06T11:16:40.626Z,102074.94
2022-10-06T11:19:35.805Z,102079.81
2022-10-06T11:22:44.546Z,102076.91
2022-10-06T11:25:47.968Z,102084.63
2022-10-06T11:29:20.030Z,102082.84
2022-10-06T11:32:54.242Z,102088.22
2022-10-06T11:35:27.431Z,102079.34
2022-10-06T11:38:37.796Z,102088.69
2022-10-06T11:41:38.732Z,102090.50
2022-10-06T11:44:37.238Z,102087.47
2022-10-06T11:47:38.382Z,102093.34
2022-10-06T11:50:36.580Z,102100.63
2022-10-06T11:53:06.005Z,102098.94
2022-10-06T11:55:33.051Z,102107.72
2022-10-06T11:58:41.920Z,102100.84
2022-10-06T12:01:02.484Z,102107.16
2022-10-06T12:03:30.947Z,102107.66
2022-10-06T12:05:58.023Z,102109.91
2022-10-06T12:08:40.749Z,102106.00
2022-10-06T12:11:43.748Z,102099.03
2022-10-06T12:18:05.045Z,102103.09
2022-10-06T12:21:10.451Z,102107.00
2022-10-06T12:23:57.865Z,102110.06
2022-10-06T12:27:10.334Z,102105.59
2022-10-06T12:30:10.886Z,102104.13
2022-10-06T12:32:49.658Z,102117.00
2022-10-06T12:35:34.030Z,102116.69
2022-10-06T12:38:43.077Z,102105.94
2022-10-06T12:41:13.056Z,102113.13
2022-10-06T12:43:56.968Z,102110.00
2022-10-06T12:46:44.766Z,102119.41
2022-10-06T12:49:37.168Z,102108.66
2022-10-06T12:52:54.314Z,102113.28
2022-10-06T12:55:49.317Z,102109.16
2022-10-06T12:58:32.316Z,102115.25
2022-10-06T13:01:08.872Z,102120.63
2022-10-06T13:03:37.688Z,102130.59
2022-10-06T13:06:08.592Z,102121.63
2022-10-06T13:08:39.674Z,102117.81
2022-10-06T13:11:15.859Z,102124.50
2022-10-06T13:13:53.264Z,102124.38
2022-10-06T13:16:46.617Z,102121.09
2022-10-06T13:19:27.158Z,102128.34
2022-10-06T13:21:54.540Z,102122.53
2022-10-06T13:24:27.118Z,102135.09
2022-10-06T13:26:54.624Z,102135.25
2022-10-06T13:29:25.905Z,102138.09
2022-10-06T13:31:56.670Z,102135.78
2022-10-06T13:34:43.203Z,102144.41
2022-10-06T13:37:15.404Z,102144.88
2022-10-06T13:39:42.424Z,102142.78
2022-10-06T13:42:16.180Z,102135.75
2022-10-06T13:45:14.668Z,102142.66
2022-10-06T13:47:41.769Z,102146.25
2022-10-06T13:50:19.789Z,102146.69
2022-10-06T13:52:48.830Z,102148.44
2022-10-06T13:55:29.476Z,102150.06
2022-10-06T13:58:04.977Z,102151.56
2022-10-06T14:01:01.316Z,102154.00
2022-10-06T14:06:18.955Z,102161.28
2022-10-06T14:08:54.088Z,102156.97
2022-10-06T14:11:29.104Z,102152.38
2022-10-06T14:14:02.270Z,102143.03
2022-10-06T14:16:30.166Z,102149.28
2022-10-06T14:19:05.605Z,102154.53
2022-10-06T14:21:34.644Z,102165.78
2022-10-06T14:24:28.539Z,102166.50
2022-10-06T14:27:06.282Z,102168.72
2022-10-06T14:29:34.270Z,102166.47
2022-10-06T14:32:13.977Z,102165.06
2022-10-06T14:34:41.966Z,102172.31
2022-10-06T14:37:15.323Z,102168.66
2022-10-06T14:39:44.945Z,102168.56
2022-10-06T14:42:14.887Z,102162.44
2022-10-06T14:44:43.110Z,102167.91
2022-10-06T14:47:10.490Z,102164.94
2022-10-06T14:49:38.113Z,102167.47
2022-10-06T14:52:05.582Z,102165.78
2022-10-06T14:54:34.470Z,102162.72
2022-10-06T14:57:01.729Z,102165.50
2022-10-06T14:59:28.863Z,102170.00
2022-10-06T15:01:55.841Z,102179.06
2022-10-06T15:04:27.571Z,102173.84
2022-10-06T15:07:13.269Z,102173.03
2022-10-06T15:09:40.235Z,102170.97
2022-10-06T15:12:07.172Z,102177.53
2022-10-06T15:14:39.920Z,102175.59
2022-10-06T15:17:07.504Z,102171.09
2022-10-06T15:19:34.500Z,102177.13
2022-10-06T15:22:06.193Z,102181.38
2022-10-06T15:24:33.122Z,102182.41
2022-10-06T15:27:23.861Z,102184.75
2022-10-06T15:29:51.654Z,102186.75
2022-10-06T15:32:18.598Z,102186.34
2022-10-06T15:34:45.605Z,102187.72
2022-10-06T15:37:12.563Z,102188.69
2022-10-06T15:39:39.540Z,102190.34
2022-10-06T15:42:07.973Z,102191.56
2022-10-06T15:44:35.322Z,102196.09
2022-10-06T15:47:04.648Z,102186.81
2022-10-06T15:49:32.974Z,102190.13
2022-10-06T15:52:03.691Z,102190.44
2022-10-06T15:54:39.414Z,102194.28
2022-10-06T15:57:11.597Z,102198.88
2022-10-06T15:59:40.991Z,102198.16
2022-10-06T16:02:15.762Z,102193.38
2022-10-06T16:04:44.311Z,102197.34
2022-10-06T16:07:19.959Z,102197.75
2022-10-06T16:09:50.441Z,102204.22
2022-10-06T16:12:23.203Z,102200.84
2022-10-06T16:14:50.586Z,102210.34
2022-10-06T16:17:18.957Z,102213.03
2022-10-06T16:19:46.925Z,102219.72
2022-10-06T16:22:17.883Z,102219.56
2022-10-06T16:24:44.890Z,102220.28
2022-10-06T16:27:16.123Z,102216.38
2022-10-06T16:29:43.150Z,102218.25
2022-10-06T16:32:10.691Z,102223.59
2022-10-06T16:34:37.603Z,102227.72
2022-10-06T16:37:04.650Z,102225.19
2022-10-06T16:39:31.614Z,102226.41
2022-10-06T16:41:58.622Z,102236.00
2022-10-06T16:44:25.558Z,102234.75
2022-10-06T16:46:52.483Z,102236.63
2022-10-06T16:49:19.807Z,102239.53
2022-10-06T16:51:46.784Z,102245.06
2022-10-06T16:54:17.015Z,102248.31
2022-10-06T16:56:53.814Z,102247.59
2022-10-06T16:59:25.946Z,102251.94
2022-10-06T17:01:53.153Z,102262.38
2022-10-06T17:04:23.527Z,102260.81
2022-10-06T17:06:56.781Z,102261.03
2022-10-06T17:09:27.858Z,102260.69
2022-10-06T17:12:02.333Z,102267.75
2022-10-06T17:14:31.991Z,102265.53
2022-10-06T17:16:59.373Z,102264.06
2022-10-06T17:19:29.980Z,102264.81
2022-10-06T17:21:59.284Z,102260.56
2022-10-06T17:24:28.515Z,102268.97
2022-10-06T17:26:57.148Z,102270.69
2022-10-06T17:29:25.891Z,102260.03
2022-10-06T17:31:56.551Z,102264.63
2022-10-06T17:34:27.824Z,102259.56
2022-10-06T17:36:59.256Z,102264.53
2022-10-06T17:39:26.157Z,102260.72
2022-10-06T17:41:53.995Z,102265.34
2022-10-06T17:44:26.274Z,102263.69
2022-10-06T17:49:30.406Z,102267.88
2022-10-06T17:51:57.533Z,102273.72
2022-10-06T17:54:27.272Z,102268.34
2022-10-06T17:56:57.362Z,102274.16
2022-10-06T17:59:30.306Z,102277.56
2022-10-06T18:02:02.429Z,102281.59
2022-10-06T18:04:29.921Z,102284.22
2022-10-06T18:06:57.304Z,102284.50
2022-10-06T18:09:25.020Z,102285.19
2022-10-06T18:11:56.560Z,102286.28
2022-10-06T18:14:30.150Z,102282.47
2022-10-06T18:17:03.715Z,102283.03
2022-10-06T18:19:34.926Z,102283.59
2022-10-06T18:22:10.107Z,102287.22
2022-10-06T18:24:38.928Z,102292.00
2022-10-06T18:27:07.789Z,102291.94
2022-10-06T18:29:38.077Z,102294.16
2022-10-06T18:36:12.289Z,102293.38
2022-10-06T18:37:41.460Z,102286.28
2022-10-06T18:40:11.161Z,102290.00
2022-10-06T18:42:39.368Z,102295.25
2022-10-06T18:45:26.828Z,102293.66
2022-10-06T18:48:12.674Z,102285.81
2022-10-06T18:50:39.902Z,102295.78
2022-10-06T18:53:07.114Z,102296.47
2022-10-06T18:55:34.884Z,102293.00
2022-10-06T18:58:02.090Z,102292.59
2022-10-06T19:00:29.027Z,102298.28
2022-10-06T19:02:56.721Z,102291.66
2022-10-06T19:05:24.635Z,102296.31
2022-10-06T19:07:54.002Z,102298.44
2022-10-06T19:10:21.425Z,102296.66
2022-10-06T19:12:48.451Z,102297.31
2022-10-06T19:15:20.253Z,102296.28
2022-10-06T19:17:48.820Z,102298.16
2022-10-06T19:20:16.077Z,102305.84
2022-10-06T19:22:43.359Z,102302.22
2022-10-06T19:25:13.798Z,102296.38
2022-10-06T19:27:41.063Z,102306.41
2022-10-06T19:30:08.382Z,102302.63
2022-10-06T19:32:35.361Z,102308.94
2022-10-06T19:35:06.397Z,102304.25
2022-10-06T19:37:36.326Z,102311.72
2022-10-06T19:40:03.529Z,102310.19
2022-10-06T19:42:59.820Z,102304.88
2022-10-06T19:45:26.796Z,102305.97
2022-10-06T19:47:54.585Z,102310.81
2022-10-06T19:50:21.638Z,102320.63
2022-10-06T19:52:48.592Z,102328.84
2022-10-06T19:55:15.521Z,102325.53
2022-10-06T19:57:43.072Z,102326.47
2022-10-06T20:00:11.353Z,102324.13
2022-10-06T20:02:42.185Z,102326.53
2022-10-06T20:05:16.815Z,102344.25
2022-10-06T20:07:47.088Z,102327.81
2022-10-06T20:10:15.218Z,102334.59
2022-10-06T20:12:42.337Z,102334.41
2022-10-06T20:15:10.843Z,102339.22
2022-10-06T20:17:38.137Z,102339.63
2022-10-06T20:20:05.771Z,102338.91
2022-10-06T20:22:32.738Z,102336.34
2022-10-06T20:25:01.726Z,102333.31
2022-10-06T20:27:28.683Z,102345.38
2022-10-06T20:29:57.896Z,102341.69
2022-10-06T20:32:24.848Z,102345.31
2022-10-06T20:34:51.770Z,102339.47
2022-10-06T20:37:18.674Z,102339.06
2022-10-06T20:40:04.015Z,102353.44
2022-10-06T20:42:31.243Z,102348.94
2022-10-06T20:44:58.425Z,102347.22
2022-10-06T20:47:25.379Z,102344.03
2022-10-06T20:49:55.037Z,102342.25
2022-10-06T20:52:24.330Z,102345.53
2022-10-06T20:54:51.452Z,102337.25
2022-10-06T20:57:18.575Z,102343.25
2022-10-06T20:59:46.052Z,102349.91
2022-10-06T21:02:13.373Z,102344.09
2022-10-06T21:04:43.546Z,102343.81
2022-10-06T21:07:11.139Z,102344.41
2022-10-06T21:09:38.105Z,102345.91
2022-10-06T21:12:05.217Z,102346.59
2022-10-06T21:14:34.033Z,102348.22
2022-10-06T21:17:01.686Z,102344.41
2022-10-06T21:19:30.169Z,102341.00
2022-10-06T21:21:57.229Z,102347.16
2022-10-06T21:24:24.348Z,102338.31
2022-10-06T21:26:52.612Z,102344.03
2022-10-06T21:29:20.469Z,102343.25
2022-10-06T21:31:47.494Z,102338.69
2022-10-06T21:34:14.815Z,102336.19
2022-10-06T21:36:44.164Z,102335.75
2022-10-06T21:39:12.945Z,102322.13
2022-10-06T21:41:40.361Z,102325.09
2022-10-06T21:44:08.823Z,102327.16
2022-10-06T21:46:54.412Z,102332.25
2022-10-06T21:49:24.694Z,102325.88
2022-10-06T21:51:55.116Z,102325.66
2022-10-06T21:54:23.697Z,102336.47
2022-10-06T21:56:51.166Z,102330.09
2022-10-06T21:59:18.458Z,102332.16
2022-10-06T22:01:47.429Z,102330.88
2022-10-06T22:04:15.529Z,102330.88
2022-10-06T22:06:45.118Z,102330.06
2022-10-06T22:09:16.529Z,102331.03
2022-10-06T22:11:43.928Z,102327.66
2022-10-06T22:14:18.217Z,102319.78
2022-10-06T22:16:45.610Z,102321.72
2022-10-06T22:19:14.901Z,102318.59
2022-10-06T22:21:46.238Z,102324.47
2022-10-06T22:24:20.139Z,102322.19
2022-10-06T22:26:48.672Z,102323.06
2022-10-06T22:29:18.433Z,102325.00
2022-10-06T22:31:47.701Z,102325.75
2022-10-06T22:34:20.128Z,102315.84
2022-10-06T22:36:47.318Z,102309.22
2022-10-06T22:39:14.737Z,102317.69
2022-10-06T22:41:41.987Z,102308.72
2022-10-06T22:44:09.098Z,102312.88
2022-10-06T22:46:37.470Z,102311.44
2022-10-06T22:49:05.950Z,102310.28
2022-10-06T22:51:33.325Z,102300.59
2022-10-06T22:54:01.002Z,102303.59
2022-10-06T22:56:31.750Z,102301.38
2022-10-06T22:58:59.596Z,102293.31
2022-10-06T23:01:28.756Z,102295.25
2022-10-06T23:03:56.360Z,102296.84
2022-10-06T23:06:24.390Z,102293.53
2022-10-06T23:08:51.520Z,102293.16
2022-10-06T23:11:21.212Z,102298.75
2022-10-06T23:13:50.137Z,102299.09
2022-10-06T23:16:19.243Z,102296.50
2022-10-06T23:18:46.989Z,102295.47
2022-10-06T23:21:21.845Z,102281.78
2022-10-06T23:23:58.083Z,102286.78
2022-10-06T23:26:25.504Z,102293.13
2022-10-06T23:28:57.651Z,102288.28
2022-10-06T23:31:29.294Z,102290.50
2022-10-06T23:33:56.689Z,102290.63
2022-10-06T23:36:23.959Z,102290.28
2022-10-06T23:38:50.915Z,102292.06
2022-10-06T23:41:18.199Z,102294.09
2022-10-06T23:43:45.235Z,102289.28
2022-10-06T23:46:12.863Z,102289.44
2022-10-06T23:48:40.172Z,102290.41
2022-10-06T23:51:11.200Z,102290.41
2022-10-06T23:53:39.004Z,102294.66
2022-10-06T23:56:06.804Z,102299.50
2022-10-06T23:58:34.366Z,102297.03
